sensor_id;sensor_type;location;lat;lon;timestamp;P1;durP1;ratioP1;P2;durP2;ratioP2
16270;SDS011;8243;49.048;8.396;2022-11-20T00:02:14;14.37;;;11.87;;
16270;SDS011;8243;49.048;8.396;2022-11-20T00:04:40;15.07;;;12.70;;
16270;SDS011;8243;49.048;8.396;2022-11-20T00:07:05;17.97;;;12.97;;
16270;SDS011;8243;49.048;8.396;2022-11-20T00:09:31;17.40;;;13.33;;
16270;SDS011;8243;49.048;8.396;2022-11-20T00:11:56;17.87;;;13.27;;
16270;SDS011;8243;49.048;8.396;2022-11-20T00:14:22;16.20;;;12.67;;
16270;SDS011;8243;49.048;8.396;2022-11-20T00:16:48;18.63;;;14.10;;
16270;SDS011;8243;49.048;8.396;2022-11-20T00:19:13;16.23;;;13.40;;
16270;SDS011;8243;49.048;8.396;2022-11-20T00:21:39;15.33;;;11.83;;
16270;SDS011;8243;49.048;8.396;2022-11-20T00:24:04;16.90;;;12.00;;
16270;SDS011;8243;49.048;8.396;2022-11-20T00:26:30;19.40;;;12.53;;
16270;SDS011;8243;49.048;8.396;2022-11-20T00:28:57;16.10;;;13.17;;
16270;SDS011;8243;49.048;8.396;2022-11-20T00:31:26;16.57;;;12.60;;
16270;SDS011;8243;49.048;8.396;2022-11-20T00:33:52;14.50;;;11.67;;
16270;SDS011;8243;49.048;8.396;2022-11-20T00:36:19;15.13;;;12.67;;
16270;SDS011;8243;49.048;8.396;2022-11-20T00:38:46;15.63;;;11.67;;
16270;SDS011;8243;49.048;8.396;2022-11-20T00:41:13;14.23;;;11.50;;
16270;SDS011;8243;49.048;8.396;2022-11-20T00:43:40;16.23;;;12.47;;
16270;SDS011;8243;49.048;8.396;2022-11-20T00:46:07;16.07;;;12.57;;
16270;SDS011;8243;49.048;8.396;2022-11-20T00:48:43;15.90;;;12.27;;
16270;SDS011;8243;49.048;8.396;2022-11-20T00:51:14;13.67;;;12.07;;
16270;SDS011;8243;49.048;8.396;2022-11-20T00:53:42;14.33;;;11.80;;
16270;SDS011;8243;49.048;8.396;2022-11-20T00:56:10;15.63;;;11.87;;
16270;SDS011;8243;49.048;8.396;2022-11-20T00:58:39;16.77;;;12.90;;
16270;SDS011;8243;49.048;8.396;2022-11-20T01:01:14;19.17;;;13.67;;
16270;SDS011;8243;49.048;8.396;2022-11-20T01:03:45;18.20;;;13.27;;
16270;SDS011;8243;49.048;8.396;2022-11-20T01:06:14;18.37;;;13.80;;
16270;SDS011;8243;49.048;8.396;2022-11-20T01:08:50;17.03;;;13.73;;
16270;SDS011;8243;49.048;8.396;2022-11-20T01:11:20;20.17;;;13.50;;
16270;SDS011;8243;49.048;8.396;2022-11-20T01:13:50;21.07;;;14.00;;
16270;SDS011;8243;49.048;8.396;2022-11-20T01:16:27;16.87;;;13.77;;
16270;SDS011;8243;49.048;8.396;2022-11-20T01:18:56;18.87;;;13.80;;
16270;SDS011;8243;49.048;8.396;2022-11-20T01:21:30;19.53;;;13.80;;
16270;SDS011;8243;49.048;8.396;2022-11-20T01:24:00;16.23;;;12.60;;
16270;SDS011;8243;49.048;8.396;2022-11-20T01:26:28;19.57;;;14.37;;
16270;SDS011;8243;49.048;8.396;2022-11-20T01:28:56;18.57;;;13.90;;
16270;SDS011;8243;49.048;8.396;2022-11-20T01:31:26;17.57;;;13.63;;
16270;SDS011;8243;49.048;8.396;2022-11-20T01:33:55;18.90;;;14.40;;
16270;SDS011;8243;49.048;8.396;2022-11-20T01:36:23;18.20;;;13.80;;
16270;SDS011;8243;49.048;8.396;2022-11-20T01:38:53;20.60;;;13.93;;
16270;SDS011;8243;49.048;8.396;2022-11-20T01:41:20;19.13;;;14.10;;
16270;SDS011;8243;49.048;8.396;2022-11-20T01:44:06;20.57;;;13.87;;
16270;SDS011;8243;49.048;8.396;2022-11-20T01:46:36;19.43;;;13.37;;
16270;SDS011;8243;49.048;8.396;2022-11-20T01:54:08;16.23;;;12.77;;
16270;SDS011;8243;49.048;8.396;2022-11-20T01:56:40;17.23;;;12.77;;
16270;SDS011;8243;49.048;8.396;2022-11-20T01:59:09;18.10;;;12.53;;
16270;SDS011;8243;49.048;8.396;2022-11-20T02:01:36;17.43;;;12.33;;
16270;SDS011;8243;49.048;8.396;2022-11-20T02:04:03;14.93;;;12.40;;
16270;SDS011;8243;49.048;8.396;2022-11-20T02:06:30;15.70;;;12.43;;
16270;SDS011;8243;49.048;8.396;2022-11-20T02:09:00;14.53;;;11.83;;
16270;SDS011;8243;49.048;8.396;2022-11-20T02:11:25;15.40;;;11.07;;
16270;SDS011;8243;49.048;8.396;2022-11-20T02:13:51;14.17;;;11.23;;
16270;SDS011;8243;49.048;8.396;2022-11-20T02:16:27;16.30;;;12.03;;
16270;SDS011;8243;49.048;8.396;2022-11-20T02:18:56;13.77;;;12.03;;
16270;SDS011;8243;49.048;8.396;2022-11-20T02:21:28;17.33;;;10.97;;
16270;SDS011;8243;49.048;8.396;2022-11-20T02:26:26;16.20;;;11.27;;
16270;SDS011;8243;49.048;8.396;2022-11-20T02:28:54;12.07;;;10.77;;
16270;SDS011;8243;49.048;8.396;2022-11-20T02:31:20;12.87;;;10.97;;
16270;SDS011;8243;49.048;8.396;2022-11-20T02:33:46;14.23;;;11.23;;
16270;SDS011;8243;49.048;8.396;2022-11-20T02:36:11;14.13;;;10.80;;
16270;SDS011;8243;49.048;8.396;2022-11-20T02:38:41;11.47;;;10.27;;
16270;SDS011;8243;49.048;8.396;2022-11-20T02:41:08;11.07;;;9.77;;
16270;SDS011;8243;49.048;8.396;2022-11-20T02:43:33;14.03;;;10.20;;
16270;SDS011;8243;49.048;8.396;2022-11-20T02:45:59;12.50;;;9.63;;
16270;SDS011;8243;49.048;8.396;2022-11-20T02:48:24;10.57;;;9.37;;
16270;SDS011;8243;49.048;8.396;2022-11-20T02:50:50;12.53;;;9.73;;
16270;SDS011;8243;49.048;8.396;2022-11-20T02:53:15;10.97;;;9.67;;
16270;SDS011;8243;49.048;8.396;2022-11-20T02:55:41;10.73;;;8.83;;
16270;SDS011;8243;49.048;8.396;2022-11-20T02:58:07;13.33;;;9.37;;
16270;SDS011;8243;49.048;8.396;2022-11-20T03:00:32;9.77;;;8.77;;
16270;SDS011;8243;49.048;8.396;2022-11-20T03:02:58;11.33;;;8.60;;
16270;SDS011;8243;49.048;8.396;2022-11-20T03:05:24;9.53;;;8.43;;
16270;SDS011;8243;49.048;8.396;2022-11-20T03:07:49;10.43;;;8.33;;
16270;SDS011;8243;49.048;8.396;2022-11-20T03:10:15;10.30;;;8.30;;
16270;SDS011;8243;49.048;8.396;2022-11-20T03:12:40;10.53;;;8.43;;
16270;SDS011;8243;49.048;8.396;2022-11-20T03:15:06;8.87;;;7.97;;
16270;SDS011;8243;49.048;8.396;2022-11-20T03:17:32;10.20;;;8.43;;
16270;SDS011;8243;49.048;8.396;2022-11-20T03:19:57;9.37;;;8.37;;
16270;SDS011;8243;49.048;8.396;2022-11-20T03:22:23;11.40;;;8.60;;
16270;SDS011;8243;49.048;8.396;2022-11-20T03:24:48;10.43;;;8.50;;
16270;SDS011;8243;49.048;8.396;2022-11-20T03:27:14;8.80;;;7.50;;
16270;SDS011;8243;49.048;8.396;2022-11-20T03:29:40;8.83;;;7.80;;
16270;SDS011;8243;49.048;8.396;2022-11-20T03:32:05;8.67;;;7.20;;
16270;SDS011;8243;49.048;8.396;2022-11-20T03:34:31;8.73;;;7.17;;
16270;SDS011;8243;49.048;8.396;2022-11-20T03:36:56;8.93;;;7.70;;
16270;SDS011;8243;49.048;8.396;2022-11-20T03:39:22;7.90;;;7.10;;
16270;SDS011;8243;49.048;8.396;2022-11-20T03:41:47;7.83;;;7.03;;
16270;SDS011;8243;49.048;8.396;2022-11-20T03:44:13;7.60;;;6.67;;
16270;SDS011;8243;49.048;8.396;2022-11-20T03:46:38;9.17;;;6.80;;
16270;SDS011;8243;49.048;8.396;2022-11-20T03:49:04;7.93;;;6.60;;
16270;SDS011;8243;49.048;8.396;2022-11-20T03:51:31;8.57;;;6.80;;
16270;SDS011;8243;49.048;8.396;2022-11-20T03:53:59;6.83;;;6.13;;
16270;SDS011;8243;49.048;8.396;2022-11-20T03:56:27;7.10;;;6.13;;
16270;SDS011;8243;49.048;8.396;2022-11-20T03:58:54;7.83;;;6.30;;
16270;SDS011;8243;49.048;8.396;2022-11-20T04:01:21;6.87;;;5.80;;
16270;SDS011;8243;49.048;8.396;2022-11-20T04:03:48;7.17;;;6.47;;
16270;SDS011;8243;49.048;8.396;2022-11-20T04:06:18;6.93;;;6.27;;
16270;SDS011;8243;49.048;8.396;2022-11-20T04:08:45;9.23;;;6.27;;
16270;SDS011;8243;49.048;8.396;2022-11-20T04:11:14;6.77;;;5.50;;
16270;SDS011;8243;49.048;8.396;2022-11-20T04:13:42;6.87;;;6.20;;
16270;SDS011;8243;49.048;8.396;2022-11-20T04:16:10;6.17;;;5.57;;
16270;SDS011;8243;49.048;8.396;2022-11-20T04:18:36;7.50;;;5.77;;
16270;SDS011;8243;49.048;8.396;2022-11-20T04:21:02;6.07;;;5.47;;
16270;SDS011;8243;49.048;8.396;2022-11-20T04:23:29;6.83;;;5.40;;
16270;SDS011;8243;49.048;8.396;2022-11-20T04:25:54;6.40;;;5.13;;
16270;SDS011;8243;49.048;8.396;2022-11-20T04:28:25;7.47;;;5.30;;
16270;SDS011;8243;49.048;8.396;2022-11-20T04:30:50;6.23;;;5.63;;
16270;SDS011;8243;49.048;8.396;2022-11-20T04:33:16;5.57;;;5.07;;
16270;SDS011;8243;49.048;8.396;2022-11-20T04:35:41;6.03;;;5.40;;
16270;SDS011;8243;49.048;8.396;2022-11-20T04:38:08;5.93;;;5.27;;
16270;SDS011;8243;49.048;8.396;2022-11-20T04:40:33;6.83;;;5.07;;
16270;SDS011;8243;49.048;8.396;2022-11-20T04:42:59;7.77;;;5.60;;
16270;SDS011;8243;49.048;8.396;2022-11-20T04:45:24;7.67;;;5.23;;
16270;SDS011;8243;49.048;8.396;2022-11-20T04:47:50;9.43;;;5.37;;
16270;SDS011;8243;49.048;8.396;2022-11-20T04:50:15;6.10;;;5.50;;
16270;SDS011;8243;49.048;8.396;2022-11-20T04:52:41;4.97;;;4.47;;
16270;SDS011;8243;49.048;8.396;2022-11-20T04:55:07;6.33;;;5.40;;
16270;SDS011;8243;49.048;8.396;2022-11-20T04:57:32;6.77;;;5.43;;
16270;SDS011;8243;49.048;8.396;2022-11-20T04:59:58;5.57;;;5.07;;
16270;SDS011;8243;49.048;8.396;2022-11-20T05:02:23;5.00;;;4.50;;
16270;SDS011;8243;49.048;8.396;2022-11-20T05:04:49;5.30;;;4.80;;
16270;SDS011;8243;49.048;8.396;2022-11-20T05:07:14;5.97;;;5.20;;
16270;SDS011;8243;49.048;8.396;2022-11-20T05:09:40;6.13;;;5.30;;
16270;SDS011;8243;49.048;8.396;2022-11-20T05:12:09;4.90;;;4.40;;
16270;SDS011;8243;49.048;8.396;2022-11-20T05:14:34;8.07;;;5.13;;
16270;SDS011;8243;49.048;8.396;2022-11-20T05:17:00;5.83;;;4.83;;
16270;SDS011;8243;49.048;8.396;2022-11-20T05:19:25;8.00;;;4.90;;
16270;SDS011;8243;49.048;8.396;2022-11-20T05:21:51;5.00;;;4.50;;
16270;SDS011;8243;49.048;8.396;2022-11-20T05:24:16;5.77;;;4.90;;
16270;SDS011;8243;49.048;8.396;2022-11-20T05:26:42;5.63;;;5.10;;
16270;SDS011;8243;49.048;8.396;2022-11-20T05:29:11;6.77;;;5.20;;
16270;SDS011;8243;49.048;8.396;2022-11-20T05:31:38;6.03;;;4.83;;
16270;SDS011;8243;49.048;8.396;2022-11-20T05:34:05;6.23;;;4.40;;
16270;SDS011;8243;49.048;8.396;2022-11-20T05:36:30;6.33;;;4.60;;
16270;SDS011;8243;49.048;8.396;2022-11-20T05:38:56;6.57;;;4.80;;
16270;SDS011;8243;49.048;8.396;2022-11-20T05:41:22;6.50;;;4.77;;
16270;SDS011;8243;49.048;8.396;2022-11-20T05:43:48;6.70;;;4.70;;
16270;SDS011;8243;49.048;8.396;2022-11-20T05:46:14;7.10;;;5.53;;
16270;SDS011;8243;49.048;8.396;2022-11-20T05:48:42;5.27;;;4.80;;
16270;SDS011;8243;49.048;8.396;2022-11-20T05:51:09;5.47;;;4.50;;
16270;SDS011;8243;49.048;8.396;2022-11-20T05:53:36;6.00;;;4.60;;
16270;SDS011;8243;49.048;8.396;2022-11-20T05:58:30;9.00;;;4.53;;
16270;SDS011;8243;49.048;8.396;2022-11-20T06:01:07;4.97;;;4.20;;
16270;SDS011;8243;49.048;8.396;2022-11-20T06:03:32;4.73;;;4.23;;
16270;SDS011;8243;49.048;8.396;2022-11-20T06:05:58;5.17;;;4.67;;
16270;SDS011;8243;49.048;8.396;2022-11-20T06:08:24;5.77;;;4.33;;
16270;SDS011;8243;49.048;8.396;2022-11-20T06:10:50;5.50;;;4.50;;
16270;SDS011;8243;49.048;8.396;2022-11-20T06:13:15;7.27;;;4.53;;
16270;SDS011;8243;49.048;8.396;2022-11-20T06:15:41;6.57;;;4.20;;
16270;SDS011;8243;49.048;8.396;2022-11-20T06:18:06;5.87;;;4.30;;
16270;SDS011;8243;49.048;8.396;2022-11-20T06:20:32;4.80;;;4.10;;
16270;SDS011;8243;49.048;8.396;2022-11-20T06:22:57;4.37;;;3.97;;
16270;SDS011;8243;49.048;8.396;2022-11-20T06:25:23;4.57;;;3.90;;
16270;SDS011;8243;49.048;8.396;2022-11-20T06:27:48;4.57;;;4.00;;
16270;SDS011;8243;49.048;8.396;2022-11-20T06:30:14;5.33;;;4.20;;
16270;SDS011;8243;49.048;8.396;2022-11-20T06:32:40;4.53;;;3.67;;
16270;SDS011;8243;49.048;8.396;2022-11-20T06:35:05;5.27;;;4.40;;
16270;SDS011;8243;49.048;8.396;2022-11-20T06:37:31;5.57;;;3.80;;
16270;SDS011;8243;49.048;8.396;2022-11-20T06:39:57;4.73;;;3.83;;
16270;SDS011;8243;49.048;8.396;2022-11-20T06:42:22;4.33;;;3.93;;
16270;SDS011;8243;49.048;8.396;2022-11-20T06:44:48;5.43;;;3.90;;
16270;SDS011;8243;49.048;8.396;2022-11-20T06:47:13;7.07;;;3.97;;
16270;SDS011;8243;49.048;8.396;2022-11-20T06:49:39;5.83;;;3.70;;
16270;SDS011;8243;49.048;8.396;2022-11-20T06:52:04;5.37;;;4.07;;
16270;SDS011;8243;49.048;8.396;2022-11-20T06:54:30;4.73;;;3.77;;
16270;SDS011;8243;49.048;8.396;2022-11-20T06:56:55;4.43;;;3.90;;
16270;SDS011;8243;49.048;8.396;2022-11-20T06:59:21;4.07;;;3.40;;
16270;SDS011;8243;49.048;8.396;2022-11-20T07:01:46;5.50;;;3.50;;
16270;SDS011;8243;49.048;8.396;2022-11-20T07:04:12;4.40;;;3.90;;
16270;SDS011;8243;49.048;8.396;2022-11-20T07:06:37;3.63;;;3.33;;
16270;SDS011;8243;49.048;8.396;2022-11-20T07:09:03;3.83;;;3.23;;
16270;SDS011;8243;49.048;8.396;2022-11-20T07:11:29;3.40;;;3.10;;
16270;SDS011;8243;49.048;8.396;2022-11-20T07:13:55;6.13;;;3.60;;
16270;SDS011;8243;49.048;8.396;2022-11-20T07:16:22;4.37;;;3.40;;
16270;SDS011;8243;49.048;8.396;2022-11-20T07:18:47;4.77;;;3.10;;
16270;SDS011;8243;49.048;8.396;2022-11-20T07:21:13;3.93;;;3.13;;
16270;SDS011;8243;49.048;8.396;2022-11-20T07:23:39;4.17;;;3.77;;
16270;SDS011;8243;49.048;8.396;2022-11-20T07:26:05;4.90;;;3.80;;
16270;SDS011;8243;49.048;8.396;2022-11-20T07:28:32;4.07;;;3.23;;
16270;SDS011;8243;49.048;8.396;2022-11-20T07:30:58;4.00;;;3.60;;
16270;SDS011;8243;49.048;8.396;2022-11-20T07:33:24;3.40;;;3.10;;
16270;SDS011;8243;49.048;8.396;2022-11-20T07:35:49;3.93;;;3.20;;
16270;SDS011;8243;49.048;8.396;2022-11-20T07:38:15;3.80;;;3.50;;
16270;SDS011;8243;49.048;8.396;2022-11-20T07:40:40;5.17;;;3.67;;
16270;SDS011;8243;49.048;8.396;2022-11-20T07:43:06;3.93;;;3.50;;
16270;SDS011;8243;49.048;8.396;2022-11-20T07:45:32;4.17;;;3.77;;
16270;SDS011;8243;49.048;8.396;2022-11-20T07:47:57;5.80;;;3.90;;
16270;SDS011;8243;49.048;8.396;2022-11-20T07:50:23;4.50;;;4.10;;
16270;SDS011;8243;49.048;8.396;2022-11-20T07:52:48;6.63;;;3.90;;
16270;SDS011;8243;49.048;8.396;2022-11-20T07:55:14;4.23;;;3.83;;
16270;SDS011;8243;49.048;8.396;2022-11-20T07:57:40;5.63;;;4.60;;
16270;SDS011;8243;49.048;8.396;2022-11-20T08:00:06;5.13;;;4.63;;
16270;SDS011;8243;49.048;8.396;2022-11-20T08:02:39;4.63;;;4.07;;
16270;SDS011;8243;49.048;8.396;2022-11-20T08:05:05;4.73;;;4.00;;
16270;SDS011;8243;49.048;8.396;2022-11-20T08:07:35;5.47;;;4.57;;
16270;SDS011;8243;49.048;8.396;2022-11-20T08:10:06;7.13;;;4.73;;
16270;SDS011;8243;49.048;8.396;2022-11-20T08:12:32;4.50;;;4.10;;
16270;SDS011;8243;49.048;8.396;2022-11-20T08:15:17;8.27;;;4.57;;
16270;SDS011;8243;49.048;8.396;2022-11-20T08:17:42;5.40;;;4.90;;
16270;SDS011;8243;49.048;8.396;2022-11-20T08:20:08;6.70;;;5.10;;
16270;SDS011;8243;49.048;8.396;2022-11-20T08:22:34;5.80;;;4.50;;
16270;SDS011;8243;49.048;8.396;2022-11-20T08:25:00;7.13;;;5.17;;
16270;SDS011;8243;49.048;8.396;2022-11-20T08:27:25;5.67;;;4.97;;
16270;SDS011;8243;49.048;8.396;2022-11-20T08:29:51;5.00;;;4.53;;
16270;SDS011;8243;49.048;8.396;2022-11-20T08:32:19;6.03;;;5.00;;
16270;SDS011;8243;49.048;8.396;2022-11-20T08:34:44;5.93;;;5.03;;
16270;SDS011;8243;49.048;8.396;2022-11-20T08:37:11;5.20;;;4.70;;
16270;SDS011;8243;49.048;8.396;2022-11-20T08:39:36;7.50;;;4.77;;
16270;SDS011;8243;49.048;8.396;2022-11-20T08:42:02;6.43;;;5.10;;
16270;SDS011;8243;49.048;8.396;2022-11-20T08:44:31;7.67;;;5.23;;
16270;SDS011;8243;49.048;8.396;2022-11-20T08:46:56;6.57;;;5.97;;
16270;SDS011;8243;49.048;8.396;2022-11-20T08:49:22;6.10;;;5.50;;
16270;SDS011;8243;49.048;8.396;2022-11-20T08:51:48;9.57;;;7.40;;
16270;SDS011;8243;49.048;8.396;2022-11-20T08:54:16;7.40;;;6.43;;
16270;SDS011;8243;49.048;8.396;2022-11-20T08:56:44;6.13;;;5.33;;
16270;SDS011;8243;49.048;8.396;2022-11-20T08:59:10;5.43;;;4.53;;
16270;SDS011;8243;49.048;8.396;2022-11-20T09:01:35;5.70;;;5.13;;
16270;SDS011;8243;49.048;8.396;2022-11-20T09:04:01;5.43;;;4.50;;
16270;SDS011;8243;49.048;8.396;2022-11-20T09:06:28;5.63;;;4.77;;
16270;SDS011;8243;49.048;8.396;2022-11-20T09:08:54;5.27;;;4.67;;
16270;SDS011;8243;49.048;8.396;2022-11-20T09:11:20;6.13;;;4.37;;
16270;SDS011;8243;49.048;8.396;2022-11-20T09:13:46;5.67;;;4.83;;
16270;SDS011;8243;49.048;8.396;2022-11-20T09:16:11;5.60;;;4.67;;
16270;SDS011;8243;49.048;8.396;2022-11-20T09:18:37;4.97;;;4.47;;
16270;SDS011;8243;49.048;8.396;2022-11-20T09:21:05;8.20;;;4.80;;
16270;SDS011;8243;49.048;8.396;2022-11-20T09:23:32;6.97;;;4.83;;
16270;SDS011;8243;49.048;8.396;2022-11-20T09:26:05;4.60;;;4.20;;
16270;SDS011;8243;49.048;8.396;2022-11-20T09:28:36;6.03;;;5.33;;
16270;SDS011;8243;49.048;8.396;2022-11-20T09:31:08;6.87;;;4.40;;
16270;SDS011;8243;49.048;8.396;2022-11-20T09:33:38;4.93;;;4.50;;
16270;SDS011;8243;49.048;8.396;2022-11-20T09:36:04;6.13;;;4.93;;
16270;SDS011;8243;49.048;8.396;2022-11-20T09:38:30;5.07;;;4.07;;
16270;SDS011;8243;49.048;8.396;2022-11-20T09:40:57;4.97;;;4.10;;
16270;SDS011;8243;49.048;8.396;2022-11-20T09:44:04;4.50;;;3.90;;
16270;SDS011;8243;49.048;8.396;2022-11-20T09:46:53;5.43;;;4.23;;
16270;SDS011;8243;49.048;8.396;2022-11-20T09:55:02;4.87;;;4.47;;
16270;SDS011;8243;49.048;8.396;2022-11-20T09:57:36;5.67;;;4.23;;
16270;SDS011;8243;49.048;8.396;2022-11-20T10:00:06;4.77;;;4.27;;
16270;SDS011;8243;49.048;8.396;2022-11-20T10:07:59;7.77;;;4.13;;
16270;SDS011;8243;49.048;8.396;2022-11-20T10:13:30;5.03;;;4.23;;
16270;SDS011;8243;49.048;8.396;2022-11-20T10:19:08;5.03;;;4.53;;
16270;SDS011;8243;49.048;8.396;2022-11-20T10:29:53;5.70;;;5.03;;
16270;SDS011;8243;49.048;8.396;2022-11-20T10:32:39;5.87;;;5.03;;
16270;SDS011;8243;49.048;8.396;2022-11-20T10:35:32;5.57;;;4.77;;
16270;SDS011;8243;49.048;8.396;2022-11-20T10:37:59;5.83;;;4.10;;
16270;SDS011;8243;49.048;8.396;2022-11-20T10:42:55;6.87;;;4.80;;
16270;SDS011;8243;49.048;8.396;2022-11-20T10:45:40;5.43;;;4.37;;
16270;SDS011;8243;49.048;8.396;2022-11-20T10:48:15;5.77;;;4.37;;
16270;SDS011;8243;49.048;8.396;2022-11-20T10:56:23;7.97;;;3.70;;
16270;SDS011;8243;49.048;8.396;2022-11-20T11:01:57;5.83;;;3.70;;
16270;SDS011;8243;49.048;8.396;2022-11-20T11:07:10;4.90;;;3.63;;
16270;SDS011;8243;49.048;8.396;2022-11-20T11:09:46;4.97;;;2.93;;
16270;SDS011;8243;49.048;8.396;2022-11-20T11:12:21;5.10;;;3.00;;
16270;SDS011;8243;49.048;8.396;2022-11-20T11:14:54;4.90;;;3.20;;
16270;SDS011;8243;49.048;8.396;2022-11-20T11:17:31;5.70;;;3.10;;
16270;SDS011;8243;49.048;8.396;2022-11-20T11:22:32;3.93;;;2.77;;
16270;SDS011;8243;49.048;8.396;2022-11-20T11:25:00;6.13;;;3.30;;
16270;SDS011;8243;49.048;8.396;2022-11-20T11:27:26;5.37;;;2.97;;
16270;SDS011;8243;49.048;8.396;2022-11-20T11:30:01;4.50;;;2.70;;
16270;SDS011;8243;49.048;8.396;2022-11-20T11:32:29;6.53;;;2.77;;
16270;SDS011;8243;49.048;8.396;2022-11-20T11:34:58;3.03;;;2.40;;
16270;SDS011;8243;49.048;8.396;2022-11-20T11:37:38;3.90;;;2.20;;
16270;SDS011;8243;49.048;8.396;2022-11-20T11:40:04;4.13;;;2.60;;
16270;SDS011;8243;49.048;8.396;2022-11-20T11:42:31;5.67;;;2.77;;
16270;SDS011;8243;49.048;8.396;2022-11-20T11:44:59;5.20;;;3.10;;
16270;SDS011;8243;49.048;8.396;2022-11-20T11:47:44;5.37;;;3.07;;
16270;SDS011;8243;49.048;8.396;2022-11-20T11:50:14;5.07;;;2.17;;
16270;SDS011;8243;49.048;8.396;2022-11-20T11:55:33;4.03;;;2.27;;
16270;SDS011;8243;49.048;8.396;2022-11-20T11:58:13;4.00;;;2.03;;
16270;SDS011;8243;49.048;8.396;2022-11-20T12:00:57;4.43;;;2.80;;
16270;SDS011;8243;49.048;8.396;2022-11-20T12:03:44;3.40;;;1.70;;
16270;SDS011;8243;49.048;8.396;2022-11-20T12:06:24;5.20;;;2.00;;
16270;SDS011;8243;49.048;8.396;2022-11-20T12:08:53;4.07;;;2.13;;
16270;SDS011;8243;49.048;8.396;2022-11-20T12:11:29;3.40;;;1.57;;
16270;SDS011;8243;49.048;8.396;2022-11-20T12:16:36;4.17;;;1.77;;
16270;SDS011;8243;49.048;8.396;2022-11-20T12:19:04;4.33;;;2.20;;
16270;SDS011;8243;49.048;8.396;2022-11-20T12:32:36;4.03;;;1.87;;
16270;SDS011;8243;49.048;8.396;2022-11-20T12:37:52;3.47;;;1.67;;
16270;SDS011;8243;49.048;8.396;2022-11-20T12:45:58;3.03;;;1.70;;
16270;SDS011;8243;49.048;8.396;2022-11-20T12:48:50;3.93;;;1.63;;
16270;SDS011;8243;49.048;8.396;2022-11-20T12:57:11;2.90;;;1.40;;
16270;SDS011;8243;49.048;8.396;2022-11-20T13:07:38;1.60;;;1.50;;
16270;SDS011;8243;49.048;8.396;2022-11-20T13:10:05;1.90;;;1.53;;
16270;SDS011;8243;49.048;8.396;2022-11-20T13:12:44;4.13;;;1.63;;
16270;SDS011;8243;49.048;8.396;2022-11-20T13:17:55;6.40;;;1.93;;
16270;SDS011;8243;49.048;8.396;2022-11-20T13:20:24;5.17;;;1.40;;
16270;SDS011;8243;49.048;8.396;2022-11-20T13:22:51;5.57;;;1.50;;
16270;SDS011;8243;49.048;8.396;2022-11-20T13:25:26;3.53;;;1.60;;
16270;SDS011;8243;49.048;8.396;2022-11-20T13:27:57;4.77;;;1.50;;
16270;SDS011;8243;49.048;8.396;2022-11-20T13:30:24;2.67;;;1.93;;
16270;SDS011;8243;49.048;8.396;2022-11-20T13:35:29;8.93;;;5.07;;
16270;SDS011;8243;49.048;8.396;2022-11-20T13:40:28;8.73;;;5.10;;
16270;SDS011;8243;49.048;8.396;2022-11-20T13:43:08;3.90;;;1.83;;
16270;SDS011;8243;49.048;8.396;2022-11-20T13:45:54;8.10;;;2.03;;
16270;SDS011;8243;49.048;8.396;2022-11-20T13:48:25;2.03;;;1.70;;
16270;SDS011;8243;49.048;8.396;2022-11-20T13:59:11;3.30;;;1.33;;
16270;SDS011;8243;49.048;8.396;2022-11-20T14:01:57;4.67;;;1.70;;
16270;SDS011;8243;49.048;8.396;2022-11-20T14:04:26;1.90;;;1.50;;
16270;SDS011;8243;49.048;8.396;2022-11-20T14:06:54;4.47;;;2.03;;
16270;SDS011;8243;49.048;8.396;2022-11-20T14:09:28;7.50;;;2.20;;
16270;SDS011;8243;49.048;8.396;2022-11-20T14:11:55;1.77;;;1.43;;
16270;SDS011;8243;49.048;8.396;2022-11-20T14:14:22;3.03;;;2.10;;
16270;SDS011;8243;49.048;8.396;2022-11-20T14:16:50;3.80;;;1.93;;
16270;SDS011;8243;49.048;8.396;2022-11-20T14:21:45;5.10;;;1.80;;
16270;SDS011;8243;49.048;8.396;2022-11-20T14:24:12;2.57;;;1.50;;
16270;SDS011;8243;49.048;8.396;2022-11-20T14:26:42;3.23;;;1.73;;
16270;SDS011;8243;49.048;8.396;2022-11-20T14:29:19;5.10;;;1.77;;
16270;SDS011;8243;49.048;8.396;2022-11-20T14:31:47;2.43;;;1.33;;
16270;SDS011;8243;49.048;8.396;2022-11-20T14:34:23;2.10;;;1.57;;
16270;SDS011;8243;49.048;8.396;2022-11-20T14:36:52;1.77;;;1.10;;
16270;SDS011;8243;49.048;8.396;2022-11-20T14:39:22;2.30;;;1.10;;
16270;SDS011;8243;49.048;8.396;2022-11-20T14:41:54;2.33;;;1.40;;
16270;SDS011;8243;49.048;8.396;2022-11-20T14:44:20;2.13;;;1.40;;
16270;SDS011;8243;49.048;8.396;2022-11-20T14:46:51;2.60;;;1.33;;
16270;SDS011;8243;49.048;8.396;2022-11-20T14:49:17;2.47;;;1.37;;
16270;SDS011;8243;49.048;8.396;2022-11-20T14:51:43;3.97;;;1.50;;
16270;SDS011;8243;49.048;8.396;2022-11-20T14:57:03;3.13;;;1.80;;
16270;SDS011;8243;49.048;8.396;2022-11-20T14:59:29;4.53;;;1.47;;
16270;SDS011;8243;49.048;8.396;2022-11-20T15:02:00;3.57;;;1.73;;
16270;SDS011;8243;49.048;8.396;2022-11-20T15:04:29;1.90;;;1.17;;
16270;SDS011;8243;49.048;8.396;2022-11-20T15:06:55;4.10;;;1.37;;
16270;SDS011;8243;49.048;8.396;2022-11-20T15:09:22;3.27;;;1.47;;
16270;SDS011;8243;49.048;8.396;2022-11-20T15:11:55;3.77;;;1.80;;
16270;SDS011;8243;49.048;8.396;2022-11-20T15:14:25;3.47;;;2.30;;
16270;SDS011;8243;49.048;8.396;2022-11-20T15:16:52;4.50;;;2.67;;
16270;SDS011;8243;49.048;8.396;2022-11-20T15:19:22;8.20;;;4.10;;
16270;SDS011;8243;49.048;8.396;2022-11-20T15:21:49;4.30;;;1.60;;
16270;SDS011;8243;49.048;8.396;2022-11-20T15:24:15;5.20;;;3.43;;
16270;SDS011;8243;49.048;8.396;2022-11-20T15:26:41;3.53;;;1.63;;
16270;SDS011;8243;49.048;8.396;2022-11-20T15:29:08;5.00;;;2.30;;
16270;SDS011;8243;49.048;8.396;2022-11-20T15:31:38;4.77;;;1.80;;
16270;SDS011;8243;49.048;8.396;2022-11-20T15:34:13;3.03;;;1.97;;
16270;SDS011;8243;49.048;8.396;2022-11-20T15:36:40;5.83;;;2.90;;
16270;SDS011;8243;49.048;8.396;2022-11-20T15:39:06;2.40;;;1.83;;
16270;SDS011;8243;49.048;8.396;2022-11-20T15:41:33;4.57;;;2.47;;
16270;SDS011;8243;49.048;8.396;2022-11-20T15:43:59;3.37;;;1.50;;
16270;SDS011;8243;49.048;8.396;2022-11-20T15:46:28;2.10;;;1.40;;
16270;SDS011;8243;49.048;8.396;2022-11-20T15:48:58;3.10;;;1.30;;
16270;SDS011;8243;49.048;8.396;2022-11-20T15:53:54;3.50;;;2.47;;
16270;SDS011;8243;49.048;8.396;2022-11-20T15:56:20;2.70;;;2.10;;
16270;SDS011;8243;49.048;8.396;2022-11-20T15:58:46;3.47;;;2.00;;
16270;SDS011;8243;49.048;8.396;2022-11-20T16:01:12;3.07;;;1.80;;
16270;SDS011;8243;49.048;8.396;2022-11-20T16:03:40;3.00;;;2.03;;
16270;SDS011;8243;49.048;8.396;2022-11-20T16:06:06;3.33;;;1.50;;
16270;SDS011;8243;49.048;8.396;2022-11-20T16:08:32;3.07;;;1.90;;
16270;SDS011;8243;49.048;8.396;2022-11-20T16:10:57;4.27;;;2.20;;
16270;SDS011;8243;49.048;8.396;2022-11-20T16:13:23;2.83;;;1.60;;
16270;SDS011;8243;49.048;8.396;2022-11-20T16:16:07;4.40;;;2.57;;
16270;SDS011;8243;49.048;8.396;2022-11-20T16:18:43;3.27;;;2.10;;
16270;SDS011;8243;49.048;8.396;2022-11-20T16:21:12;7.57;;;2.60;;
16270;SDS011;8243;49.048;8.396;2022-11-20T16:23:38;2.67;;;1.80;;
16270;SDS011;8243;49.048;8.396;2022-11-20T16:26:16;3.97;;;2.80;;
16270;SDS011;8243;49.048;8.396;2022-11-20T16:28:43;7.00;;;3.83;;
16270;SDS011;8243;49.048;8.396;2022-11-20T16:31:09;5.97;;;3.07;;
16270;SDS011;8243;49.048;8.396;2022-11-20T16:33:41;3.87;;;2.60;;
16270;SDS011;8243;49.048;8.396;2022-11-20T16:36:16;4.20;;;2.37;;
16270;SDS011;8243;49.048;8.396;2022-11-20T16:38:43;2.67;;;2.07;;
16270;SDS011;8243;49.048;8.396;2022-11-20T16:41:08;4.00;;;2.90;;
16270;SDS011;8243;49.048;8.396;2022-11-20T16:43:45;4.23;;;2.40;;
16270;SDS011;8243;49.048;8.396;2022-11-20T16:46:13;5.70;;;3.60;;
16270;SDS011;8243;49.048;8.396;2022-11-20T16:48:39;4.93;;;4.20;;
16270;SDS011;8243;49.048;8.396;2022-11-20T16:51:07;4.03;;;2.60;;
16270;SDS011;8243;49.048;8.396;2022-11-20T16:53:34;3.63;;;2.43;;
16270;SDS011;8243;49.048;8.396;2022-11-20T16:56:14;4.20;;;3.43;;
16270;SDS011;8243;49.048;8.396;2022-11-20T16:58:41;2.13;;;1.90;;